sensor_id;sensor_type;location;lat;lon;timestamp;temperature;humidity
3705;DHT22;1868;48.918;9.438;2022-09-27T00:01:11;10.80;97.40
3705;DHT22;1868;48.918;9.438;2022-09-27T00:03:40;10.80;97.40
3705;DHT22;1868;48.918;9.438;2022-09-27T00:06:12;10.80;97.40
3705;DHT22;1868;48.918;9.438;2022-09-27T00:08:43;10.80;97.40
3705;DHT22;1868;48.918;9.438;2022-09-27T00:11:19;10.80;97.40
3705;DHT22;1868;48.918;9.438;2022-09-27T00:13:51;10.80;97.40
3705;DHT22;1868;48.918;9.438;2022-09-27T00:16:21;10.80;97.40
3705;DHT22;1868;48.918;9.438;2022-09-27T00:18:49;10.80;97.40
3705;DHT22;1868;48.918;9.438;2022-09-27T00:21:18;10.80;97.40
3705;DHT22;1868;48.918;9.438;2022-09-27T00:23:48;10.80;97.40
3705;DHT22;1868;48.918;9.438;2022-09-27T00:26:16;10.80;97.40
3705;DHT22;1868;48.918;9.438;2022-09-27T00:28:45;10.80;97.40
3705;DHT22;1868;48.918;9.438;2022-09-27T00:31:17;10.80;97.40
3705;DHT22;1868;48.918;9.438;2022-09-27T00:33:48;10.80;97.40
3705;DHT22;1868;48.918;9.438;2022-09-27T00:36:19;10.80;97.40
3705;DHT22;1868;48.918;9.438;2022-09-27T00:38:49;10.80;97.40
3705;DHT22;1868;48.918;9.438;2022-09-27T00:41:20;10.80;97.40
3705;DHT22;1868;48.918;9.438;2022-09-27T00:43:51;10.80;97.40
3705;DHT22;1868;48.918;9.438;2022-09-27T00:46:26;10.80;97.40
3705;DHT22;1868;48.918;9.438;2022-09-27T00:49:05;10.80;97.40
3705;DHT22;1868;48.918;9.438;2022-09-27T00:51:41;10.80;97.40
3705;DHT22;1868;48.918;9.438;2022-09-27T00:54:13;10.80;97.40
3705;DHT22;1868;48.918;9.438;2022-09-27T00:56:42;10.80;97.40
3705;DHT22;1868;48.918;9.438;2022-09-27T00:59:16;10.80;97.40
3705;DHT22;1868;48.918;9.438;2022-09-27T01:01:48;10.80;97.40
3705;DHT22;1868;48.918;9.438;2022-09-27T01:04:19;10.80;97.40
3705;DHT22;1868;48.918;9.438;2022-09-27T01:06:50;10.80;97.40
3705;DHT22;1868;48.918;9.438;2022-09-27T01:09:20;10.80;97.40
3705;DHT22;1868;48.918;9.438;2022-09-27T01:11:55;10.80;97.40
3705;DHT22;1868;48.918;9.438;2022-09-27T01:14:40;10.80;97.40
3705;DHT22;1868;48.918;9.438;2022-09-27T01:17:28;10.80;97.40
3705;DHT22;1868;48.918;9.438;2022-09-27T01:20:19;10.80;97.40
3705;DHT22;1868;48.918;9.438;2022-09-27T01:23:25;10.80;97.40
3705;DHT22;1868;48.918;9.438;2022-09-27T01:26:27;10.90;97.40
3705;DHT22;1868;48.918;9.438;2022-09-27T01:29:06;10.80;97.40
3705;DHT22;1868;48.918;9.438;2022-09-27T01:31:46;10.80;97.40
3705;DHT22;1868;48.918;9.438;2022-09-27T01:34:22;10.90;97.40
3705;DHT22;1868;48.918;9.438;2022-09-27T01:36:57;10.90;97.40
3705;DHT22;1868;48.918;9.438;2022-09-27T01:39:35;10.90;97.40
3705;DHT22;1868;48.918;9.438;2022-09-27T01:42:32;10.90;97.40
3705;DHT22;1868;48.918;9.438;2022-09-27T01:45:09;10.90;97.40
3705;DHT22;1868;48.918;9.438;2022-09-27T01:47:54;10.90;97.40
3705;DHT22;1868;48.918;9.438;2022-09-27T01:50:57;11.00;97.40
3705;DHT22;1868;48.918;9.438;2022-09-27T01:53:33;11.00;97.40
3705;DHT22;1868;48.918;9.438;2022-09-27T01:56:30;11.00;97.40
3705;DHT22;1868;48.918;9.438;2022-09-27T01:59:08;11.00;97.40
3705;DHT22;1868;48.918;9.438;2022-09-27T02:01:47;11.00;97.40
3705;DHT22;1868;48.918;9.438;2022-09-27T02:04:23;11.00;97.40
3705;DHT22;1868;48.918;9.438;2022-09-27T02:07:11;11.00;97.40
3705;DHT22;1868;48.918;9.438;2022-09-27T02:09:48;10.90;97.40
3705;DHT22;1868;48.918;9.438;2022-09-27T02:12:23;11.00;97.40
3705;DHT22;1868;48.918;9.438;2022-09-27T02:14:57;11.00;97.40
3705;DHT22;1868;48.918;9.438;2022-09-27T02:17:37;11.00;97.40
3705;DHT22;1868;48.918;9.438;2022-09-27T02:20:14;11.00;97.40
3705;DHT22;1868;48.918;9.438;2022-09-27T02:22:56;11.00;97.40
3705;DHT22;1868;48.918;9.438;2022-09-27T02:25:34;11.00;97.40
3705;DHT22;1868;48.918;9.438;2022-09-27T02:28:14;11.00;97.40
3705;DHT22;1868;48.918;9.438;2022-09-27T02:30:50;10.90;97.40
3705;DHT22;1868;48.918;9.438;2022-09-27T02:33:25;10.90;97.40
3705;DHT22;1868;48.918;9.438;2022-09-27T02:35:58;10.90;97.40
3705;DHT22;1868;48.918;9.438;2022-09-27T02:38:27;10.90;97.40
3705;DHT22;1868;48.918;9.438;2022-09-27T02:40:58;10.90;97.40
3705;DHT22;1868;48.918;9.438;2022-09-27T02:43:28;10.90;97.40
3705;DHT22;1868;48.918;9.438;2022-09-27T02:46:13;10.90;97.40
3705;DHT22;1868;48.918;9.438;2022-09-27T02:48:54;10.90;97.40
3705;DHT22;1868;48.918;9.438;2022-09-27T02:51:40;10.90;97.40
3705;DHT22;1868;48.918;9.438;2022-09-27T02:54:18;10.90;97.40
3705;DHT22;1868;48.918;9.438;2022-09-27T02:57:20;11.00;97.40
3705;DHT22;1868;48.918;9.438;2022-09-27T03:00:01;10.90;97.40
3705;DHT22;1868;48.918;9.438;2022-09-27T03:03:00;10.90;97.40
3705;DHT22;1868;48.918;9.438;2022-09-27T03:05:38;10.80;97.40
3705;DHT22;1868;48.918;9.438;2022-09-27T03:08:11;10.80;97.40
3705;DHT22;1868;48.918;9.438;2022-09-27T03:10:40;10.80;97.40
3705;DHT22;1868;48.918;9.438;2022-09-27T03:13:08;10.80;97.40
3705;DHT22;1868;48.918;9.438;2022-09-27T03:15:36;10.70;97.40
3705;DHT22;1868;48.918;9.438;2022-09-27T03:18:05;10.70;97.40
3705;DHT22;1868;48.918;9.438;2022-09-27T03:20:52;10.70;97.40
3705;DHT22;1868;48.918;9.438;2022-09-27T03:23:24;10.60;97.40
3705;DHT22;1868;48.918;9.438;2022-09-27T03:25:53;10.60;97.40
3705;DHT22;1868;48.918;9.438;2022-09-27T03:28:22;10.70;97.40
3705;DHT22;1868;48.918;9.438;2022-09-27T03:30:58;10.70;97.40
3705;DHT22;1868;48.918;9.438;2022-09-27T03:33:47;10.70;97.40
3705;DHT22;1868;48.918;9.438;2022-09-27T03:36:16;10.70;97.40
3705;DHT22;1868;48.918;9.438;2022-09-27T03:38:45;10.60;97.40
3705;DHT22;1868;48.918;9.438;2022-09-27T03:41:17;10.60;97.40
3705;DHT22;1868;48.918;9.438;2022-09-27T03:43:45;10.60;97.40
3705;DHT22;1868;48.918;9.438;2022-09-27T03:46:13;10.60;97.40
3705;DHT22;1868;48.918;9.438;2022-09-27T03:48:42;10.60;97.40
3705;DHT22;1868;48.918;9.438;2022-09-27T03:51:10;10.50;97.40
3705;DHT22;1868;48.918;9.438;2022-09-27T03:53:39;10.60;97.40
3705;DHT22;1868;48.918;9.438;2022-09-27T03:56:10;10.60;97.40
3705;DHT22;1868;48.918;9.438;2022-09-27T03:58:38;10.50;97.40
3705;DHT22;1868;48.918;9.438;2022-09-27T04:01:07;10.50;97.40
3705;DHT22;1868;48.918;9.438;2022-09-27T04:03:37;10.50;97.40
3705;DHT22;1868;48.918;9.438;2022-09-27T04:06:08;10.50;97.40
3705;DHT22;1868;48.918;9.438;2022-09-27T04:08:40;10.50;97.40
3705;DHT22;1868;48.918;9.438;2022-09-27T04:11:11;10.50;97.40
3705;DHT22;1868;48.918;9.438;2022-09-27T04:13:42;10.50;97.40
3705;DHT22;1868;48.918;9.438;2022-09-27T04:16:11;10.50;97.40
3705;DHT22;1868;48.918;9.438;2022-09-27T04:18:50;10.50;97.40
3705;DHT22;1868;48.918;9.438;2022-09-27T04:21:45;10.50;97.40
3705;DHT22;1868;48.918;9.438;2022-09-27T04:24:14;10.50;97.40
3705;DHT22;1868;48.918;9.438;2022-09-27T04:26:55;10.50;97.40
3705;DHT22;1868;48.918;9.438;2022-09-27T04:29:25;10.50;97.40
3705;DHT22;1868;48.918;9.438;2022-09-27T04:31:58;10.50;97.40
3705;DHT22;1868;48.918;9.438;2022-09-27T04:34:56;10.60;97.40
3705;DHT22;1868;48.918;9.438;2022-09-27T04:37:42;10.50;97.40
3705;DHT22;1868;48.918;9.438;2022-09-27T04:40:10;10.60;97.40
3705;DHT22;1868;48.918;9.438;2022-09-27T04:42:40;10.50;97.40
3705;DHT22;1868;48.918;9.438;2022-09-27T04:45:09;10.60;97.40
3705;DHT22;1868;48.918;9.438;2022-09-27T04:47:41;10.60;97.40
3705;DHT22;1868;48.918;9.438;2022-09-27T04:50:10;10.60;97.40
3705;DHT22;1868;48.918;9.438;2022-09-27T04:52:39;10.60;97.40
3705;DHT22;1868;48.918;9.438;2022-09-27T04:55:09;10.60;97.40
3705;DHT22;1868;48.918;9.438;2022-09-27T04:57:37;10.60;97.40
3705;DHT22;1868;48.918;9.438;2022-09-27T05:00:08;10.60;97.40
3705;DHT22;1868;48.918;9.438;2022-09-27T05:02:38;10.60;97.40
3705;DHT22;1868;48.918;9.438;2022-09-27T05:05:07;10.60;97.40
3705;DHT22;1868;48.918;9.438;2022-09-27T05:07:40;10.60;97.40
3705;DHT22;1868;48.918;9.438;2022-09-27T05:10:14;10.60;97.40
3705;DHT22;1868;48.918;9.438;2022-09-27T05:12:42;10.60;97.40
3705;DHT22;1868;48.918;9.438;2022-09-27T05:15:15;10.60;97.40
3705;DHT22;1868;48.918;9.438;2022-09-27T05:18:02;10.60;97.40
3705;DHT22;1868;48.918;9.438;2022-09-27T05:20:59;10.60;97.40
3705;DHT22;1868;48.918;9.438;2022-09-27T05:23:34;10.60;97.40
3705;DHT22;1868;48.918;9.438;2022-09-27T05:26:03;10.60;97.40
3705;DHT22;1868;48.918;9.438;2022-09-27T05:28:33;10.60;97.40
3705;DHT22;1868;48.918;9.438;2022-09-27T05:31:03;10.60;97.40
3705;DHT22;1868;48.918;9.438;2022-09-27T05:33:31;10.50;97.40
3705;DHT22;1868;48.918;9.438;2022-09-27T05:36:30;10.50;97.40
3705;DHT22;1868;48.918;9.438;2022-09-27T05:38:59;10.50;97.40
3705;DHT22;1868;48.918;9.438;2022-09-27T05:41:28;10.60;97.40
3705;DHT22;1868;48.918;9.438;2022-09-27T05:43:58;10.60;97.40
3705;DHT22;1868;48.918;9.438;2022-09-27T05:46:28;10.60;97.40
3705;DHT22;1868;48.918;9.438;2022-09-27T05:48:58;10.60;97.40
3705;DHT22;1868;48.918;9.438;2022-09-27T05:51:27;10.60;97.40
3705;DHT22;1868;48.918;9.438;2022-09-27T05:53:55;10.60;97.40
3705;DHT22;1868;48.918;9.438;2022-09-27T05:56:27;10.60;97.40
3705;DHT22;1868;48.918;9.438;2022-09-27T05:59:22;10.60;97.40
3705;DHT22;1868;48.918;9.438;2022-09-27T06:02:11;10.60;97.40
3705;DHT22;1868;48.918;9.438;2022-09-27T06:04:57;10.60;97.40
3705;DHT22;1868;48.918;9.438;2022-09-27T06:07:49;10.50;97.40
3705;DHT22;1868;48.918;9.438;2022-09-27T06:10:27;10.60;97.40
3705;DHT22;1868;48.918;9.438;2022-09-27T06:13:00;10.60;97.40
3705;DHT22;1868;48.918;9.438;2022-09-27T06:15:36;10.50;97.40
3705;DHT22;1868;48.918;9.438;2022-09-27T06:18:09;10.60;97.40
3705;DHT22;1868;48.918;9.438;2022-09-27T06:20:39;10.60;97.40
3705;DHT22;1868;48.918;9.438;2022-09-27T06:23:10;10.60;97.40
3705;DHT22;1868;48.918;9.438;2022-09-27T06:25:40;10.60;97.40
3705;DHT22;1868;48.918;9.438;2022-09-27T06:28:38;10.60;97.40
3705;DHT22;1868;48.918;9.438;2022-09-27T06:31:07;10.70;97.40
3705;DHT22;1868;48.918;9.438;2022-09-27T06:33:46;10.80;97.40
3705;DHT22;1868;48.918;9.438;2022-09-27T06:36:15;10.70;97.40
3705;DHT22;1868;48.918;9.438;2022-09-27T06:38:45;10.70;97.40
3705;DHT22;1868;48.918;9.438;2022-09-27T06:41:18;10.70;97.40
3705;DHT22;1868;48.918;9.438;2022-09-27T06:44:13;10.80;97.40
3705;DHT22;1868;48.918;9.438;2022-09-27T06:47:00;10.70;97.40
3705;DHT22;1868;48.918;9.438;2022-09-27T06:49:44;10.70;97.40
3705;DHT22;1868;48.918;9.438;2022-09-27T06:52:15;10.70;97.40
3705;DHT22;1868;48.918;9.438;2022-09-27T06:54:44;10.70;97.40
3705;DHT22;1868;48.918;9.438;2022-09-27T06:57:12;10.70;97.40
3705;DHT22;1868;48.918;9.438;2022-09-27T07:00:03;10.80;97.40
3705;DHT22;1868;48.918;9.438;2022-09-27T07:03:09;10.90;97.40
3705;DHT22;1868;48.918;9.438;2022-09-27T07:06:16;10.90;97.40
3705;DHT22;1868;48.918;9.438;2022-09-27T07:08:50;10.90;97.40
3705;DHT22;1868;48.918;9.438;2022-09-27T07:11:21;10.90;97.40
3705;DHT22;1868;48.918;9.438;2022-09-27T07:13:52;10.80;97.40
3705;DHT22;1868;48.918;9.438;2022-09-27T07:16:22;10.80;97.40
3705;DHT22;1868;48.918;9.438;2022-09-27T07:18:50;10.80;97.40
3705;DHT22;1868;48.918;9.438;2022-09-27T07:21:20;10.80;97.40
3705;DHT22;1868;48.918;9.438;2022-09-27T07:23:49;10.80;97.40
3705;DHT22;1868;48.918;9.438;2022-09-27T07:26:17;10.80;97.40
3705;DHT22;1868;48.918;9.438;2022-09-27T07:28:46;10.80;97.40
3705;DHT22;1868;48.918;9.438;2022-09-27T07:31:16;10.80;97.40
3705;DHT22;1868;48.918;9.438;2022-09-27T07:33:44;10.80;97.40
3705;DHT22;1868;48.918;9.438;2022-09-27T07:36:13;10.80;97.40
3705;DHT22;1868;48.918;9.438;2022-09-27T07:38:45;10.80;97.40
3705;DHT22;1868;48.918;9.438;2022-09-27T07:41:16;10.70;97.40
3705;DHT22;1868;48.918;9.438;2022-09-27T07:43:45;10.80;97.40
3705;DHT22;1868;48.918;9.438;2022-09-27T07:46:13;10.80;97.40
3705;DHT22;1868;48.918;9.438;2022-09-27T07:48:50;11.00;97.40
3705;DHT22;1868;48.918;9.438;2022-09-27T07:51:36;11.00;97.40
3705;DHT22;1868;48.918;9.438;2022-09-27T07:54:29;11.00;97.40
3705;DHT22;1868;48.918;9.438;2022-09-27T07:57:23;11.00;97.40
3705;DHT22;1868;48.918;9.438;2022-09-27T07:59:53;10.90;97.40
3705;DHT22;1868;48.918;9.438;2022-09-27T08:02:22;10.90;97.40
3705;DHT22;1868;48.918;9.438;2022-09-27T08:04:51;10.90;97.40
3705;DHT22;1868;48.918;9.438;2022-09-27T08:07:21;10.90;97.40
3705;DHT22;1868;48.918;9.438;2022-09-27T08:09:53;10.90;97.40
3705;DHT22;1868;48.918;9.438;2022-09-27T08:12:22;10.90;97.40
3705;DHT22;1868;48.918;9.438;2022-09-27T08:14:51;10.90;97.40
3705;DHT22;1868;48.918;9.438;2022-09-27T08:17:21;11.00;97.40
3705;DHT22;1868;48.918;9.438;2022-09-27T08:20:16;11.00;97.40
3705;DHT22;1868;48.918;9.438;2022-09-27T08:23:04;11.10;97.40
3705;DHT22;1868;48.918;9.438;2022-09-27T08:25:37;11.40;97.40
3705;DHT22;1868;48.918;9.438;2022-09-27T08:28:25;12.00;97.40
3705;DHT22;1868;48.918;9.438;2022-09-27T08:30:59;13.20;97.40
3705;DHT22;1868;48.918;9.438;2022-09-27T08:33:28;13.80;97.40
3705;DHT22;1868;48.918;9.438;2022-09-27T08:36:00;13.70;97.40
3705;DHT22;1868;48.918;9.438;2022-09-27T08:38:29;13.70;97.40
3705;DHT22;1868;48.918;9.438;2022-09-27T08:41:06;13.50;97.40
3705;DHT22;1868;48.918;9.438;2022-09-27T08:43:45;13.40;97.40
3705;DHT22;1868;48.918;9.438;2022-09-27T08:46:25;13.20;97.40
3705;DHT22;1868;48.918;9.438;2022-09-27T08:49:09;13.20;97.40
3705;DHT22;1868;48.918;9.438;2022-09-27T08:51:42;13.20;97.40
3705;DHT22;1868;48.918;9.438;2022-09-27T08:54:15;13.10;97.40
3705;DHT22;1868;48.918;9.438;2022-09-27T08:56:47;13.10;97.40
3705;DHT22;1868;48.918;9.438;2022-09-27T08:59:19;13.00;97.40
3705;DHT22;1868;48.918;9.438;2022-09-27T09:01:51;12.90;97.40
3705;DHT22;1868;48.918;9.438;2022-09-27T09:04:33;12.70;97.40
3705;DHT22;1868;48.918;9.438;2022-09-27T09:07:08;12.50;97.40
3705;DHT22;1868;48.918;9.438;2022-09-27T09:09:50;12.50;97.40
3705;DHT22;1868;48.918;9.438;2022-09-27T09:12:34;12.50;97.40
3705;DHT22;1868;48.918;9.438;2022-09-27T09:15:21;12.50;97.40
3705;DHT22;1868;48.918;9.438;2022-09-27T09:18:14;12.50;97.40
3705;DHT22;1868;48.918;9.438;2022-09-27T09:21:22;12.40;97.40
3705;DHT22;1868;48.918;9.438;2022-09-27T09:24:16;12.40;97.40
3705;DHT22;1868;48.918;9.438;2022-09-27T09:26:57;12.60;97.40
3705;DHT22;1868;48.918;9.438;2022-09-27T09:29:59;12.70;97.40
3705;DHT22;1868;48.918;9.438;2022-09-27T09:32:43;12.80;97.40
3705;DHT22;1868;48.918;9.438;2022-09-27T09:35:25;12.80;97.40
3705;DHT22;1868;48.918;9.438;2022-09-27T09:37:57;12.80;97.40
3705;DHT22;1868;48.918;9.438;2022-09-27T09:40:30;12.70;97.40
3705;DHT22;1868;48.918;9.438;2022-09-27T09:43:07;12.70;97.40
3705;DHT22;1868;48.918;9.438;2022-09-27T09:45:44;12.80;97.40
3705;DHT22;1868;48.918;9.438;2022-09-27T09:48:19;12.90;97.40
3705;DHT22;1868;48.918;9.438;2022-09-27T09:50:53;13.20;97.40
3705;DHT22;1868;48.918;9.438;2022-09-27T09:53:33;14.10;97.40
3705;DHT22;1868;48.918;9.438;2022-09-27T09:56:09;14.40;97.40
3705;DHT22;1868;48.918;9.438;2022-09-27T09:58:46;14.50;97.40
3705;DHT22;1868;48.918;9.438;2022-09-27T10:01:26;14.60;97.40
3705;DHT22;1868;48.918;9.438;2022-09-27T10:03:55;15.70;97.00
3705;DHT22;1868;48.918;9.438;2022-09-27T10:06:25;15.90;93.70
3705;DHT22;1868;48.918;9.438;2022-09-27T10:08:56;16.00;93.20
3705;DHT22;1868;48.918;9.438;2022-09-27T10:11:42;15.80;93.10
3705;DHT22;1868;48.918;9.438;2022-09-27T10:14:16;15.60;93.10
3705;DHT22;1868;48.918;9.438;2022-09-27T10:16:54;15.40;93.30
3705;DHT22;1868;48.918;9.438;2022-09-27T10:19:28;15.10;94.20
3705;DHT22;1868;48.918;9.438;2022-09-27T10:22:01;14.80;95.00
3705;DHT22;1868;48.918;9.438;2022-09-27T10:24:57;14.80;95.00
3705;DHT22;1868;48.918;9.438;2022-09-27T10:28:06;14.70;95.10
3705;DHT22;1868;48.918;9.438;2022-09-27T10:30:36;14.50;95.30
3705;DHT22;1868;48.918;9.438;2022-09-27T10:33:15;14.40;96.20
3705;DHT22;1868;48.918;9.438;2022-09-27T10:36:00;14.30;96.20
3705;DHT22;1868;48.918;9.438;2022-09-27T10:38:33;14.20;96.50
3705;DHT22;1868;48.918;9.438;2022-09-27T10:41:23;14.20;97.00
3705;DHT22;1868;48.918;9.438;2022-09-27T10:44:19;14.40;96.20
3705;DHT22;1868;48.918;9.438;2022-09-27T10:47:06;14.50;94.60
3705;DHT22;1868;48.918;9.438;2022-09-27T10:49:42;14.40;95.60
3705;DHT22;1868;48.918;9.438;2022-09-27T10:52:22;14.40;95.50
3705;DHT22;1868;48.918;9.438;2022-09-27T10:54:53;14.30;95.20
3705;DHT22;1868;48.918;9.438;2022-09-27T10:57:24;14.30;95.10
3705;DHT22;1868;48.918;9.438;2022-09-27T10:59:55;14.30;95.60
3705;DHT22;1868;48.918;9.438;2022-09-27T11:02:33;14.30;96.40
3705;DHT22;1868;48.918;9.438;2022-09-27T11:05:11;14.20;96.10
3705;DHT22;1868;48.918;9.438;2022-09-27T11:07:48;14.20;95.90
3705;DHT22;1868;48.918;9.438;2022-09-27T11:10:23;14.10;94.70
3705;DHT22;1868;48.918;9.438;2022-09-27T11:13:11;13.90;95.10
3705;DHT22;1868;48.918;9.438;2022-09-27T11:15:55;13.80;96.40
3705;DHT22;1868;48.918;9.438;2022-09-27T11:18:35;13.60;97.40
3705;DHT22;1868;48.918;9.438;2022-09-27T11:21:20;13.60;97.40
3705;DHT22;1868;48.918;9.438;2022-09-27T11:24:00;13.50;97.40
3705;DHT22;1868;48.918;9.438;2022-09-27T11:26:46;13.40;97.40
3705;DHT22;1868;48.918;9.438;2022-09-27T11:29:28;13.40;97.40
3705;DHT22;1868;48.918;9.438;2022-09-27T11:32:32;13.40;97.40
3705;DHT22;1868;48.918;9.438;2022-09-27T11:35:26;13.30;97.40
3705;DHT22;1868;48.918;9.438;2022-09-27T11:38:23;13.20;97.40
3705;DHT22;1868;48.918;9.438;2022-09-27T11:41:26;13.10;97.40
3705;DHT22;1868;48.918;9.438;2022-09-27T11:44:24;12.80;97.40
3705;DHT22;1868;48.918;9.438;2022-09-27T11:47:10;12.70;97.40
3705;DHT22;1868;48.918;9.438;2022-09-27T11:50:12;12.50;97.40
3705;DHT22;1868;48.918;9.438;2022-09-27T11:52:59;12.30;97.40
3705;DHT22;1868;48.918;9.438;2022-09-27T11:55:42;12.40;97.40
3705;DHT22;1868;48.918;9.438;2022-09-27T11:58:19;12.40;97.40
3705;DHT22;1868;48.918;9.438;2022-09-27T12:01:06;12.40;97.40
3705;DHT22;1868;48.918;9.438;2022-09-27T12:04:00;12.20;97.40
3705;DHT22;1868;48.918;9.438;2022-09-27T12:06:44;12.10;97.40
3705;DHT22;1868;48.918;9.438;2022-09-27T12:09:21;11.90;97.40
3705;DHT22;1868;48.918;9.438;2022-09-27T12:11:53;11.70;97.40
3705;DHT22;1868;48.918;9.438;2022-09-27T12:14:28;11.40;97.40
3705;DHT22;1868;48.918;9.438;2022-09-27T12:17:02;11.20;97.40
3705;DHT22;1868;48.918;9.438;2022-09-27T12:19:35;11.00;97.40
3705;DHT22;1868;48.918;9.438;2022-09-27T12:22:19;10.80;97.40
3705;DHT22;1868;48.918;9.438;2022-09-27T12:25:13;10.60;97.40
3705;DHT22;1868;48.918;9.438;2022-09-27T12:28:10;10.40;97.40
3705;DHT22;1868;48.918;9.438;2022-09-27T12:30:45;10.30;97.40
3705;DHT22;1868;48.918;9.438;2022-09-27T12:33:40;10.30;97.40
3705;DHT22;1868;48.918;9.438;2022-09-27T12:36:15;10.30;97.40
3705;DHT22;1868;48.918;9.438;2022-09-27T12:38:52;10.30;97.40
3705;DHT22;1868;48.918;9.438;2022-09-27T12:41:28;10.30;97.40
3705;DHT22;1868;48.918;9.438;2022-09-27T12:44:14;10.30;97.40
3705;DHT22;1868;48.918;9.438;2022-09-27T12:46:57;10.50;97.40
3705;DHT22;1868;48.918;9.438;2022-09-27T12:49:39;10.60;97.40
3705;DHT22;1868;48.918;9.438;2022-09-27T12:52:14;10.60;97.40
3705;DHT22;1868;48.918;9.438;2022-09-27T12:55:06;10.60;97.40
3705;DHT22;1868;48.918;9.438;2022-09-27T12:57:50;10.60;97.40
3705;DHT22;1868;48.918;9.438;2022-09-27T13:00:34;10.60;97.40
3705;DHT22;1868;48.918;9.438;2022-09-27T13:03:39;10.60;97.40
3705;DHT22;1868;48.918;9.438;2022-09-27T13:06:33;10.50;97.40
3705;DHT22;1868;48.918;9.438;2022-09-27T13:12:08;10.50;97.40
3705;DHT22;1868;48.918;9.438;2022-09-27T13:14:44;10.50;97.40
3705;DHT22;1868;48.918;9.438;2022-09-27T13:17:48;10.50;97.40
3705;DHT22;1868;48.918;9.438;2022-09-27T13:23:57;10.50;97.40
3705;DHT22;1868;48.918;9.438;2022-09-27T13:26:44;10.50;97.40
3705;DHT22;1868;48.918;9.438;2022-09-27T13:29:27;10.50;97.40
3705;DHT22;1868;48.918;9.438;2022-09-27T13:32:14;10.50;97.40
3705;DHT22;1868;48.918;9.438;2022-09-27T13:35:11;10.30;97.40
3705;DHT22;1868;48.918;9.438;2022-09-27T13:37:52;10.30;97.40
3705;DHT22;1868;48.918;9.438;2022-09-27T13:40:42;10.20;97.40
3705;DHT22;1868;48.918;9.438;2022-09-27T13:43:46;10.20;97.40
3705;DHT22;1868;48.918;9.438;2022-09-27T13:46:45;10.10;97.40
3705;DHT22;1868;48.918;9.438;2022-09-27T13:49:26;10.10;97.40
3705;DHT22;1868;48.918;9.438;2022-09-27T13:52:17;10.00;97.40
3705;DHT22;1868;48.918;9.438;2022-09-27T13:55:00;10.10;97.40
3705;DHT22;1868;48.918;9.438;2022-09-27T13:57:43;10.00;97.40
3705;DHT22;1868;48.918;9.438;2022-09-27T14:00:20;9.90;97.40
3705;DHT22;1868;48.918;9.438;2022-09-27T14:02:59;9.90;97.40
3705;DHT22;1868;48.918;9.438;2022-09-27T14:05:38;9.90;97.40
3705;DHT22;1868;48.918;9.438;2022-09-27T14:08:17;9.90;97.40
3705;DHT22;1868;48.918;9.438;2022-09-27T14:10:48;9.90;97.40
3705;DHT22;1868;48.918;9.438;2022-09-27T14:13:18;9.90;97.40
3705;DHT22;1868;48.918;9.438;2022-09-27T14:15:58;9.90;97.40
3705;DHT22;1868;48.918;9.438;2022-09-27T14:18:31;9.90;97.40
3705;DHT22;1868;48.918;9.438;2022-09-27T14:21:16;9.90;97.40
3705;DHT22;1868;48.918;9.438;2022-09-27T14:24:25;10.00;97.40
3705;DHT22;1868;48.918;9.438;2022-09-27T14:27:09;10.10;97.40
3705;DHT22;1868;48.918;9.438;2022-09-27T14:29:43;10.20;97.40
3705;DHT22;1868;48.918;9.438;2022-09-27T14:32:19;10.30;97.40
3705;DHT22;1868;48.918;9.438;2022-09-27T14:35:06;10.40;97.40
3705;DHT22;1868;48.918;9.438;2022-09-27T14:37:59;10.40;97.40
3705;DHT22;1868;48.918;9.438;2022-09-27T14:40:56;10.40;97.40
3705;DHT22;1868;48.918;9.438;2022-09-27T14:43:27;10.40;97.40
3705;DHT22;1868;48.918;9.438;2022-09-27T14:45:58;10.40;97.40
3705;DHT22;1868;48.918;9.438;2022-09-27T14:48:29;10.40;97.40
3705;DHT22;1868;48.918;9.438;2022-09-27T14:51:00;10.50;97.40
3705;DHT22;1868;48.918;9.438;2022-09-27T14:53:36;10.50;97.40
3705;DHT22;1868;48.918;9.438;2022-09-27T14:56:10;10.50;97.40
3705;DHT22;1868;48.918;9.438;2022-09-27T14:58:43;10.50;97.40
3705;DHT22;1868;48.918;9.438;2022-09-27T15:01:14;10.50;97.40
3705;DHT22;1868;48.918;9.438;2022-09-27T15:03:44;10.50;97.40
3705;DHT22;1868;48.918;9.438;2022-09-27T15:06:15;10.60;97.40
3705;DHT22;1868;48.918;9.438;2022-09-27T15:08:45;10.70;97.40
3705;DHT22;1868;48.918;9.438;2022-09-27T15:11:15;10.80;97.40
3705;DHT22;1868;48.918;9.438;2022-09-27T15:13:45;10.90;97.40
3705;DHT22;1868;48.918;9.438;2022-09-27T15:16:20;10.90;97.40
3705;DHT22;1868;48.918;9.438;2022-09-27T15:18:59;10.80;97.40
3705;DHT22;1868;48.918;9.438;2022-09-27T15:21:30;11.00;97.40
3705;DHT22;1868;48.918;9.438;2022-09-27T15:24:01;11.20;97.40
3705;DHT22;1868;48.918;9.438;2022-09-27T15:26:36;11.30;97.40
3705;DHT22;1868;48.918;9.438;2022-09-27T15:29:16;11.40;97.40
3705;DHT22;1868;48.918;9.438;2022-09-27T15:31:57;11.90;97.40
3705;DHT22;1868;48.918;9.438;2022-09-27T15:34:26;12.60;97.40
3705;DHT22;1868;48.918;9.438;2022-09-27T15:36:56;12.50;97.40
3705;DHT22;1868;48.918;9.438;2022-09-27T15:39:29;12.40;97.40
3705;DHT22;1868;48.918;9.438;2022-09-27T15:42:04;12.20;97.40
3705;DHT22;1868;48.918;9.438;2022-09-27T15:44:37;12.30;97.40
3705;DHT22;1868;48.918;9.438;2022-09-27T15:47:39;12.10;97.40
3705;DHT22;1868;48.918;9.438;2022-09-27T15:50:32;12.00;97.40
3705;DHT22;1868;48.918;9.438;2022-09-27T15:53:02;11.70;97.40
3705;DHT22;1868;48.918;9.438;2022-09-27T15:55:38;11.70;97.40
3705;DHT22;1868;48.918;9.438;2022-09-27T15:58:12;11.60;97.40
3705;DHT22;1868;48.918;9.438;2022-09-27T16:00:53;11.60;97.40
3705;DHT22;1868;48.918;9.438;2022-09-27T16:03:22;11.70;97.40
3705;DHT22;1868;48.918;9.438;2022-09-27T16:05:51;11.70;97.40
3705;DHT22;1868;48.918;9.438;2022-09-27T16:08:22;11.70;97.40
3705;DHT22;1868;48.918;9.438;2022-09-27T16:10:53;11.70;97.40
3705;DHT22;1868;48.918;9.438;2022-09-27T16:13:22;11.80;97.40
3705;DHT22;1868;48.918;9.438;2022-09-27T16:15:58;12.10;97.40
3705;DHT22;1868;48.918;9.438;2022-09-27T16:18:26;12.30;97.40
3705;DHT22;1868;48.918;9.438;2022-09-27T16:20:56;12.10;97.40
3705;DHT22;1868;48.918;9.438;2022-09-27T16:23:25;12.00;97.40
3705;DHT22;1868;48.918;9.438;2022-09-27T16:25:54;11.70;97.40
3705;DHT22;1868;48.918;9.438;2022-09-27T16:28:23;11.60;97.40
3705;DHT22;1868;48.918;9.438;2022-09-27T16:30:51;11.50;97.40
3705;DHT22;1868;48.918;9.438;2022-09-27T16:33:19;11.40;97.40
3705;DHT22;1868;48.918;9.438;2022-09-27T16:35:47;11.30;97.40
3705;DHT22;1868;48.918;9.438;2022-09-27T16:38:15;11.20;97.40
3705;DHT22;1868;48.918;9.438;2022-09-27T16:40:43;11.20;97.40
3705;DHT22;1868;48.918;9.438;2022-09-27T16:43:13;11.10;97.40
3705;DHT22;1868;48.918;9.438;2022-09-27T16:45:42;11.10;97.40
3705;DHT22;1868;48.918;9.438;2022-09-27T16:48:10;11.00;97.40
3705;DHT22;1868;48.918;9.438;2022-09-27T16:50:38;11.00;97.40
3705;DHT22;1868;48.918;9.438;2022-09-27T16:53:24;11.00;97.40
3705;DHT22;1868;48.918;9.438;2022-09-27T16:55:57;10.90;97.40
3705;DHT22;1868;48.918;9.438;2022-09-27T16:58:29;10.90;97.40
3705;DHT22;1868;48.918;9.438;2022-09-27T17:00:57;10.90;97.40
3705;DHT22;1868;48.918;9.438;2022-09-27T17:03:25;10.80;97.40
3705;DHT22;1868;48.918;9.438;2022-09-27T17:05:54;10.70;97.40
3705;DHT22;1868;48.918;9.438;2022-09-27T17:08:27;10.60;97.40
3705;DHT22;1868;48.918;9.438;2022-09-27T17:10:55;10.70;97.40
3705;DHT22;1868;48.918;9.438;2022-09-27T17:13:25;10.70;97.40
3705;DHT22;1868;48.918;9.438;2022-09-27T17:15:55;10.70;97.40